Terminal Aerodrome Forecast
Issued by NWS Denver/Boulder, CO

Home | Current Version | Previous Version | Text Only | Print | Product List | Glossary On
Versions: 1 2 3 4 5 6 7 8 9 10 11 12 13 14 15 16 17 18 19 20 21 22 23 24 25 26 27 28 29 30 31 32 33
000
FTUS45 KBOU 190802 AAA
TAFDEN
TAF AMD
KDEN 190802Z 1908/2012 22013KT P6SM FEW120 SCT200
     FM191300 30010KT P6SM FEW080 SCT120 BKN200
     FM191500 05013G18KT P6SM SCT080 BKN120 BKN160
     FM191700 08012KT P6SM SCT070 BKN120 OVC150
     FM192100 11010KT P6SM VCSH SCT060 BKN080 OVC120 PROB30
      1922/2002 VRB15G25KT -SHRA BKN060
     FM200400 17008KT P6SM SCT090 BKN130
     FM200700 22012KT P6SM FEW100 SCT150=

USA.gov is the U.S. government's official web portal to all federal, state and local government web resources and services.